createdAt,value
2018-12-11T00:01:15.425Z,11.20
2018-12-11T00:03:42.669Z,11.08
2018-12-11T00:06:10.061Z,10.13
2018-12-11T00:08:37.438Z,15.05
2018-12-11T00:11:04.766Z,9.80
2018-12-11T00:13:32.142Z,10.38
2018-12-11T00:15:59.521Z,10.85
2018-12-11T00:18:26.864Z,14.58
2018-12-11T00:20:54.201Z,11.60
2018-12-11T00:23:21.663Z,9.58
2018-12-11T00:25:48.991Z,12.40
2018-12-11T00:28:16.293Z,13.55
2018-12-11T00:30:43.618Z,9.13
2018-12-11T00:33:10.976Z,9.93
2018-12-11T00:35:38.307Z,12.88
2018-12-11T00:38:05.627Z,10.95
2018-12-11T00:40:32.966Z,10.82
2018-12-11T00:43:00.721Z,11.30
2018-12-11T00:45:28.153Z,15.60
2018-12-11T00:47:55.527Z,13.55
2018-12-11T00:50:22.856Z,11.20
2018-12-11T00:52:50.182Z,15.13
2018-12-11T00:55:17.528Z,9.85
2018-12-11T00:57:44.872Z,8.53
2018-12-11T01:00:12.272Z,11.20
2018-12-11T01:02:39.500Z,9.50
2018-12-11T01:05:06.987Z,9.08
2018-12-11T01:07:34.318Z,9.15
2018-12-11T01:10:03.748Z,10.58
2018-12-11T01:12:31.130Z,18.20
2018-12-11T01:14:58.460Z,12.58
2018-12-11T01:17:25.818Z,14.93
2018-12-11T01:19:53.157Z,13.85
2018-12-11T01:22:20.486Z,11.95
2018-12-11T01:24:47.824Z,9.70
2018-12-11T01:27:15.149Z,12.68
2018-12-11T01:29:42.444Z,9.93
2018-12-11T01:32:09.801Z,13.40
2018-12-11T01:34:37.123Z,16.50
2018-12-11T01:37:04.469Z,11.00
2018-12-11T01:39:31.795Z,13.48
2018-12-11T01:41:59.157Z,19.12
2018-12-11T01:44:26.567Z,13.28
2018-12-11T01:46:53.893Z,13.10
2018-12-11T01:49:21.245Z,13.43
2018-12-11T01:51:48.575Z,19.37
2018-12-11T01:54:15.904Z,13.28
2018-12-11T01:56:43.229Z,22.90
2018-12-11T01:59:10.613Z,24.47
2018-12-11T02:01:37.999Z,12.45
2018-12-11T02:04:05.360Z,12.43
2018-12-11T02:06:33.099Z,12.85
2018-12-11T02:09:00.428Z,10.68
2018-12-11T02:11:27.820Z,9.48
2018-12-11T02:13:55.159Z,17.32
2018-12-11T02:16:22.410Z,15.60
2018-12-11T02:18:49.737Z,19.73
2018-12-11T02:21:17.093Z,15.50
2018-12-11T02:23:44.414Z,12.13
2018-12-11T02:26:11.740Z,7.55
2018-12-11T02:28:39.179Z,12.60
2018-12-11T02:31:06.567Z,11.90
2018-12-11T02:33:33.910Z,11.63
2018-12-11T02:36:01.244Z,14.30
2018-12-11T02:38:28.570Z,11.83
2018-12-11T02:40:55.952Z,15.50
2018-12-11T02:43:23.179Z,13.50
2018-12-11T02:45:50.513Z,10.55
2018-12-11T02:48:17.873Z,9.25
2018-12-11T02:50:45.115Z,15.10
2018-12-11T02:53:12.545Z,8.80
2018-12-11T02:55:39.914Z,12.88
2018-12-11T02:58:07.246Z,8.88
2018-12-11T03:00:34.728Z,9.03
2018-12-11T03:03:01.937Z,8.48
2018-12-11T03:05:29.270Z,11.48
2018-12-11T03:07:56.607Z,16.25
2018-12-11T03:10:23.939Z,13.03
2018-12-11T03:12:51.287Z,10.40
2018-12-11T03:15:18.614Z,15.40
2018-12-11T03:17:45.971Z,10.38
2018-12-11T03:20:13.311Z,11.68
2018-12-11T03:22:40.548Z,15.95
2018-12-11T03:25:07.980Z,8.40
2018-12-11T03:27:35.187Z,9.80
2018-12-11T03:30:02.734Z,8.60
2018-12-11T03:32:30.141Z,7.12
2018-12-11T03:34:57.408Z,9.00
2018-12-11T03:37:24.716Z,9.55
2018-12-11T03:39:52.057Z,11.25
2018-12-11T03:42:19.356Z,10.82
2018-12-11T03:44:46.650Z,13.22
2018-12-11T03:47:14.113Z,9.65
2018-12-11T03:49:41.464Z,9.38
2018-12-11T03:52:08.818Z,5.58
2018-12-11T03:54:36.145Z,13.43
2018-12-11T03:57:03.485Z,9.83
2018-12-11T03:59:30.823Z,7.58
2018-12-11T04:01:58.179Z,7.83
2018-12-11T04:04:25.569Z,7.17
2018-12-11T04:06:52.902Z,16.40
2018-12-11T04:09:27.013Z,12.70
2018-12-11T04:11:54.606Z,10.60
2018-12-11T04:14:22.148Z,7.72
2018-12-11T04:16:49.498Z,9.58
2018-12-11T04:19:16.831Z,5.72
2018-12-11T04:21:44.223Z,14.80
2018-12-11T04:24:11.771Z,7.08
2018-12-11T04:26:39.117Z,5.22
2018-12-11T04:29:06.455Z,13.22
2018-12-11T04:31:33.757Z,5.30
2018-12-11T04:34:01.114Z,4.95
2018-12-11T04:36:28.443Z,11.22
2018-12-11T04:38:55.817Z,6.17
2018-12-11T04:41:23.095Z,8.00
2018-12-11T04:43:50.423Z,12.07
2018-12-11T04:46:17.776Z,6.75
2018-12-11T04:48:45.144Z,3.77
2018-12-11T04:51:12.493Z,9.25
2018-12-11T04:53:39.695Z,9.33
2018-12-11T04:56:07.079Z,9.73
2018-12-11T04:58:34.379Z,8.63
2018-12-11T05:01:01.700Z,13.00
2018-12-11T05:03:28.946Z,9.23
2018-12-11T05:05:56.285Z,8.40
2018-12-11T05:08:23.670Z,10.98
2018-12-11T05:10:51.004Z,8.98
2018-12-11T05:13:18.362Z,6.72
2018-12-11T05:15:45.582Z,14.30
2018-12-11T05:18:12.920Z,13.38
2018-12-11T05:20:40.282Z,8.40
2018-12-11T05:23:07.642Z,7.80
2018-12-11T05:25:35.006Z,7.87
2018-12-11T05:28:02.452Z,8.05
2018-12-11T05:30:29.789Z,14.13
2018-12-11T05:32:57.028Z,6.78
2018-12-11T05:35:24.352Z,8.75
2018-12-11T05:37:51.626Z,8.65
2018-12-11T05:40:18.967Z,9.50
2018-12-11T05:42:46.272Z,6.15
2018-12-11T05:45:13.680Z,7.17
2018-12-11T05:47:41.882Z,9.85
2018-12-11T05:50:09.310Z,11.00
2018-12-11T05:52:36.556Z,5.50
2018-12-11T05:55:04.138Z,13.05
2018-12-11T05:57:31.595Z,14.68
2018-12-11T05:59:58.927Z,5.30
2018-12-11T06:02:26.255Z,6.15
2018-12-11T06:04:53.584Z,6.05
2018-12-11T06:07:22.627Z,7.65
2018-12-11T06:09:49.970Z,5.20
2018-12-11T06:12:17.304Z,7.17
2018-12-11T06:14:44.638Z,8.45
2018-12-11T06:17:11.969Z,4.40
2018-12-11T06:19:39.337Z,16.70
2018-12-11T06:22:06.647Z,11.78
2018-12-11T06:24:33.953Z,5.10
2018-12-11T06:27:01.303Z,5.15
2018-12-11T06:29:28.530Z,8.83
2018-12-11T06:31:55.854Z,7.83
2018-12-11T06:34:23.216Z,3.55
2018-12-11T06:36:50.548Z,4.60
2018-12-11T06:39:17.874Z,6.08
2018-12-11T06:41:45.232Z,6.90
2018-12-11T06:44:12.565Z,14.58
2018-12-11T06:46:39.892Z,6.03
2018-12-11T06:49:07.235Z,7.25
2018-12-11T06:51:34.548Z,5.92
2018-12-11T06:54:01.890Z,3.67
2018-12-11T06:56:29.239Z,10.18
2018-12-11T06:58:56.569Z,8.20
2018-12-11T07:01:23.829Z,17.90
2018-12-11T07:03:51.149Z,6.95
2018-12-11T07:06:18.720Z,10.28
2018-12-11T07:08:46.065Z,5.97
2018-12-11T07:11:13.440Z,8.90
2018-12-11T07:13:40.757Z,12.68
2018-12-11T07:16:08.096Z,10.85
2018-12-11T07:18:35.443Z,9.43
2018-12-11T07:21:03.019Z,9.95
2018-12-11T07:23:30.371Z,4.17
2018-12-11T07:25:57.694Z,14.70
2018-12-11T07:28:25.031Z,6.53
2018-12-11T07:30:52.515Z,10.10
2018-12-11T07:33:19.883Z,10.25
2018-12-11T07:35:47.196Z,10.65
2018-12-11T07:38:14.425Z,11.65
2018-12-11T07:40:41.779Z,9.58
2018-12-11T07:43:09.083Z,7.03
2018-12-11T07:45:36.440Z,11.22
2018-12-11T07:48:03.797Z,6.58
2018-12-11T07:50:31.177Z,9.48
2018-12-11T07:52:58.513Z,6.90
2018-12-11T07:55:25.831Z,7.20
2018-12-11T07:57:53.219Z,6.33
2018-12-11T08:00:20.565Z,6.60
2018-12-11T08:02:47.967Z,7.58
2018-12-11T08:05:15.301Z,7.47
2018-12-11T08:07:42.613Z,7.20
2018-12-11T08:10:09.936Z,5.42
2018-12-11T08:12:37.275Z,2.85
2018-12-11T08:15:05.162Z,4.05
2018-12-11T08:17:32.519Z,4.53
2018-12-11T08:19:59.841Z,6.62
2018-12-11T08:22:27.188Z,7.22
2018-12-11T08:24:54.535Z,13.10
2018-12-11T08:27:21.823Z,7.08
2018-12-11T08:29:49.166Z,3.85
2018-12-11T08:32:16.527Z,3.85
2018-12-11T08:34:44.002Z,8.75
2018-12-11T08:37:11.340Z,4.05
2018-12-11T08:39:38.989Z,6.03
2018-12-11T08:42:06.348Z,5.67
2018-12-11T08:44:33.698Z,4.42
2018-12-11T08:47:01.047Z,6.65
2018-12-11T08:49:28.372Z,3.80
2018-12-11T08:51:55.747Z,3.02
2018-12-11T08:54:23.170Z,5.55
2018-12-11T08:56:50.505Z,7.03
2018-12-11T08:59:17.875Z,6.17
2018-12-11T09:01:45.356Z,10.10
2018-12-11T09:04:12.680Z,3.17
2018-12-11T09:06:39.942Z,4.75
2018-12-11T09:09:07.193Z,4.50
2018-12-11T09:11:34.537Z,3.90
2018-12-11T09:14:01.920Z,4.97
2018-12-11T09:16:29.285Z,8.08
2018-12-11T09:18:56.769Z,3.67
2018-12-11T09:21:24.175Z,10.65
2018-12-11T09:23:51.452Z,10.80
2018-12-11T09:26:18.811Z,5.95
2018-12-11T09:28:46.175Z,3.70
2018-12-11T09:31:13.590Z,6.33
2018-12-11T09:33:41.070Z,10.75
2018-12-11T09:36:08.304Z,5.72
2018-12-11T09:38:35.656Z,5.87
2018-12-11T09:41:02.985Z,8.70
2018-12-11T09:43:30.288Z,6.47
2018-12-11T09:45:57.776Z,4.40
2018-12-11T09:48:25.141Z,6.03
2018-12-11T09:50:52.530Z,12.00
2018-12-11T09:53:19.866Z,3.80
2018-12-11T09:55:47.450Z,6.05
2018-12-11T09:58:15.660Z,4.75
2018-12-11T10:00:43.154Z,4.97
2018-12-11T10:03:10.914Z,7.97
2018-12-11T10:05:38.270Z,9.03
2018-12-11T10:08:05.531Z,7.92
2018-12-11T10:10:33.029Z,5.58
2018-12-11T10:13:00.552Z,5.62
2018-12-11T10:15:27.906Z,4.65
2018-12-11T10:17:55.326Z,7.28
2018-12-11T10:20:23.152Z,7.33
2018-12-11T10:22:50.527Z,6.05
2018-12-11T10:25:17.956Z,4.33
2018-12-11T10:27:45.311Z,2.77
2018-12-11T10:30:12.810Z,13.13
2018-12-11T10:32:40.062Z,16.77
2018-12-11T10:35:07.661Z,6.08
2018-12-11T10:37:35.153Z,5.28
2018-12-11T10:40:02.689Z,5.25
2018-12-11T10:42:30.021Z,4.37
2018-12-11T10:44:57.396Z,5.20
2018-12-11T10:47:24.893Z,3.50
2018-12-11T10:49:52.131Z,3.42
2018-12-11T10:52:19.571Z,6.25
2018-12-11T10:54:46.943Z,8.15
2018-12-11T10:57:14.363Z,5.53
2018-12-11T10:59:41.696Z,5.97
2018-12-11T11:04:54.156Z,6.17
2018-12-11T11:07:21.948Z,10.03
2018-12-11T11:09:49.644Z,10.98
2018-12-11T11:12:17.058Z,8.68
2018-12-11T11:14:44.549Z,7.30
2018-12-11T11:17:11.891Z,5.35
2018-12-11T11:19:39.224Z,10.80
2018-12-11T11:22:07.683Z,5.72
2018-12-11T11:24:35.531Z,7.92
2018-12-11T11:27:03.100Z,5.45
2018-12-11T11:29:30.528Z,5.05
2018-12-11T11:31:57.957Z,4.37
2018-12-11T11:34:25.513Z,9.23
2018-12-11T11:36:52.768Z,9.10
2018-12-11T11:39:20.221Z,4.12
2018-12-11T11:41:47.616Z,18.90
2018-12-11T11:44:14.977Z,7.75
2018-12-11T11:46:42.335Z,10.40
2018-12-11T11:49:12.658Z,9.55
2018-12-11T11:51:40.351Z,9.03
2018-12-11T11:54:07.603Z,5.00
2018-12-11T11:56:35.102Z,14.60
2018-12-11T11:59:03.069Z,4.05
2018-12-11T12:01:30.779Z,4.28
2018-12-11T12:03:58.867Z,7.83
2018-12-11T12:06:26.377Z,6.75
2018-12-11T12:08:59.213Z,7.80
2018-12-11T12:11:23.238Z,5.65
2018-12-11T12:13:50.896Z,14.28
2018-12-11T12:16:18.477Z,6.03
2018-12-11T12:18:45.863Z,6.08
2018-12-11T12:21:13.272Z,5.40
2018-12-11T12:23:40.804Z,15.18
2018-12-11T12:26:08.209Z,4.53
2018-12-11T12:28:35.582Z,4.80
2018-12-11T12:31:03.427Z,7.25
2018-12-11T12:33:30.815Z,4.60
2018-12-11T12:35:58.257Z,4.83
2018-12-11T12:38:25.568Z,4.33
2018-12-11T12:40:52.998Z,6.47
2018-12-11T12:43:20.410Z,7.45
2018-12-11T12:45:47.793Z,11.18
2018-12-11T12:48:15.137Z,4.25
2018-12-11T12:50:42.487Z,3.17
2018-12-11T12:53:09.831Z,3.70
2018-12-11T12:55:37.159Z,5.08
2018-12-11T12:58:04.539Z,6.58
2018-12-11T13:00:31.867Z,4.53
2018-12-11T13:03:02.157Z,5.50
2018-12-11T13:05:29.510Z,6.45
2018-12-11T13:07:56.862Z,9.58
2018-12-11T13:10:24.226Z,5.17
2018-12-11T13:12:51.725Z,4.28
2018-12-11T13:15:19.108Z,5.37
2018-12-11T13:17:46.472Z,8.78
2018-12-11T13:20:13.856Z,7.37
2018-12-11T13:22:41.390Z,10.15
2018-12-11T13:25:08.749Z,2.77
2018-12-11T13:27:35.983Z,3.52
2018-12-11T13:30:04.419Z,7.30
2018-12-11T13:32:31.760Z,4.22
2018-12-11T13:34:59.135Z,2.50
2018-12-11T13:37:26.519Z,5.03
2018-12-11T13:39:53.924Z,3.83
2018-12-11T13:42:21.290Z,6.95
2018-12-11T13:44:48.693Z,8.53
2018-12-11T13:47:16.095Z,5.08
2018-12-11T13:49:43.507Z,3.70
2018-12-11T13:52:10.849Z,3.50
2018-12-11T13:54:38.264Z,11.68
2018-12-11T13:57:05.799Z,3.27
2018-12-11T13:59:33.287Z,12.65
2018-12-11T14:02:00.689Z,5.30
2018-12-11T14:04:28.062Z,5.80
2018-12-11T14:06:55.493Z,3.67
2018-12-11T14:09:28.584Z,5.08
2018-12-11T14:11:55.965Z,5.22
2018-12-11T14:14:23.234Z,5.92
2018-12-11T14:16:50.633Z,9.48
2018-12-11T14:19:17.933Z,6.67
2018-12-11T14:21:45.268Z,7.00
2018-12-11T14:24:12.704Z,4.83
2018-12-11T14:26:40.056Z,5.83
2018-12-11T14:29:07.342Z,5.22
2018-12-11T14:31:37.288Z,5.70
2018-12-11T14:34:04.667Z,4.30
2018-12-11T14:36:32.008Z,9.25
2018-12-11T14:38:59.363Z,6.72
2018-12-11T14:41:26.635Z,5.08
2018-12-11T14:43:53.992Z,11.63
2018-12-11T14:46:21.330Z,8.20
2018-12-11T14:48:48.752Z,5.50
2018-12-11T14:51:16.144Z,4.75
2018-12-11T14:53:43.516Z,5.10
2018-12-11T14:56:10.914Z,7.87
2018-12-11T14:58:38.312Z,6.03
2018-12-11T15:01:05.699Z,6.12
2018-12-11T15:03:33.116Z,11.95
2018-12-11T15:06:00.413Z,13.58
2018-12-11T15:08:27.792Z,9.58
2018-12-11T15:10:55.158Z,8.15
2018-12-11T15:13:22.563Z,9.10
2018-12-11T15:15:49.986Z,10.05
2018-12-11T15:18:17.408Z,7.72
2018-12-11T15:20:44.804Z,5.10
2018-12-11T15:23:12.190Z,6.53
2018-12-11T15:25:39.654Z,7.25
2018-12-11T15:28:07.091Z,4.65
2018-12-11T15:30:34.546Z,4.90
2018-12-11T15:33:01.973Z,8.88
2018-12-11T15:35:29.416Z,6.87
2018-12-11T15:37:56.733Z,7.03
2018-12-11T15:40:24.207Z,8.18
2018-12-11T15:42:51.685Z,4.95
2018-12-11T15:45:20.574Z,6.00
2018-12-11T15:47:47.949Z,8.25
2018-12-11T15:50:15.408Z,8.93
2018-12-11T15:52:42.851Z,11.35
2018-12-11T15:55:10.287Z,6.50
2018-12-11T15:57:37.657Z,7.97
2018-12-11T16:00:06.691Z,7.40
2018-12-11T16:02:35.188Z,6.60
2018-12-11T16:05:02.643Z,19.75
2018-12-11T16:07:30.235Z,6.45
2018-12-11T16:09:57.707Z,11.93
2018-12-11T16:12:25.083Z,11.57
2018-12-11T16:14:52.512Z,9.03
2018-12-11T16:17:20.016Z,6.95
2018-12-11T16:19:47.499Z,6.67
2018-12-11T16:22:14.931Z,9.15
2018-12-11T16:24:42.367Z,11.63
2018-12-11T16:27:09.996Z,9.10
2018-12-11T16:29:38.118Z,6.97
2018-12-11T16:32:05.628Z,8.10
2018-12-11T16:34:33.358Z,6.92
2018-12-11T16:37:00.830Z,7.03
2018-12-11T16:39:28.299Z,14.00
2018-12-11T16:41:55.857Z,11.22
2018-12-11T16:44:24.138Z,7.37
2018-12-11T16:46:51.657Z,7.22
2018-12-11T16:49:19.142Z,8.78
2018-12-11T16:51:46.569Z,10.70
2018-12-11T16:54:14.069Z,12.15
2018-12-11T16:56:41.492Z,8.85
2018-12-11T16:59:09.058Z,7.40
2018-12-11T17:01:36.574Z,8.55
2018-12-11T17:04:04.036Z,7.72
2018-12-11T17:06:31.480Z,7.60
2018-12-11T17:08:58.972Z,15.48
2018-12-11T17:11:27.776Z,10.60
2018-12-11T17:13:55.251Z,10.98
2018-12-11T17:16:23.253Z,11.75
2018-12-11T17:18:51.013Z,10.80
2018-12-11T17:21:18.569Z,13.70
2018-12-11T17:23:46.860Z,11.18
2018-12-11T17:29:25.425Z,10.05
2018-12-11T17:31:54.457Z,12.15
2018-12-11T17:34:21.988Z,8.38
2018-12-11T17:36:49.630Z,7.95
2018-12-11T17:39:17.267Z,9.95
2018-12-11T17:41:44.766Z,12.47
2018-12-11T17:44:12.251Z,12.07
2018-12-11T17:46:39.975Z,11.18
2018-12-11T17:49:07.508Z,10.10
2018-12-11T17:51:36.050Z,9.73
2018-12-11T17:54:04.247Z,9.30
2018-12-11T17:56:32.449Z,11.03
2018-12-11T17:59:00.180Z,12.28
2018-12-11T18:01:29.860Z,8.70
2018-12-11T18:03:57.391Z,17.95
2018-12-11T18:06:24.946Z,9.80
2018-12-11T18:08:52.429Z,13.72
2018-12-11T18:11:20.023Z,9.13
2018-12-11T18:13:48.484Z,14.05
2018-12-11T18:16:16.175Z,15.08
2018-12-11T18:18:44.115Z,12.28
2018-12-11T18:21:11.860Z,11.28
2018-12-11T18:23:39.883Z,11.53
2018-12-11T18:26:07.720Z,18.52
2018-12-11T18:28:35.351Z,17.12
2018-12-11T18:31:02.998Z,13.80
2018-12-11T18:33:30.637Z,16.15
2018-12-11T18:35:58.686Z,15.10
2018-12-11T18:38:27.446Z,14.95
2018-12-11T18:40:56.066Z,15.70
2018-12-11T18:43:23.993Z,15.20
2018-12-11T18:45:52.197Z,10.10
2018-12-11T18:48:20.986Z,18.60
2018-12-11T18:50:49.102Z,12.45
2018-12-11T18:53:18.080Z,21.87
2018-12-11T18:55:46.785Z,19.70
2018-12-11T18:58:15.009Z,13.80
2018-12-11T19:00:43.900Z,15.58
2018-12-11T19:03:12.328Z,12.65
2018-12-11T19:05:41.140Z,11.40
2018-12-11T19:08:10.266Z,14.15
2018-12-11T19:10:41.674Z,13.60
2018-12-11T19:13:09.883Z,17.55
2018-12-11T19:15:39.087Z,11.53
2018-12-11T19:18:07.663Z,15.88
2018-12-11T19:20:36.585Z,14.68
2018-12-11T19:23:16.950Z,14.85
2018-12-11T19:25:46.592Z,15.50
2018-12-11T19:28:15.707Z,14.07
2018-12-11T19:30:44.602Z,11.03
2018-12-11T19:33:13.347Z,13.68
2018-12-11T19:35:42.763Z,11.55
2018-12-11T19:38:13.309Z,12.85
2018-12-11T19:40:44.056Z,13.55
2018-12-11T19:43:13.426Z,13.15
2018-12-11T19:45:42.277Z,13.78
2018-12-11T19:48:11.904Z,16.12
2018-12-11T19:50:44.195Z,12.03
2018-12-11T19:53:15.994Z,14.10
2018-12-11T19:55:46.708Z,18.55
2018-12-11T19:58:16.187Z,16.35
2018-12-11T20:00:45.146Z,19.98
2018-12-11T20:03:13.758Z,17.20
2018-12-11T20:05:42.622Z,21.87
2018-12-11T20:08:12.057Z,20.45
2018-12-11T20:10:42.399Z,12.63
2018-12-11T20:13:12.755Z,17.40
2018-12-11T20:15:41.935Z,17.77
2018-12-11T20:18:13.015Z,15.18
2018-12-11T20:20:41.588Z,18.95
2018-12-11T20:23:10.033Z,12.43
2018-12-11T20:25:40.952Z,12.10
2018-12-11T20:28:09.597Z,19.50
2018-12-11T20:30:39.989Z,18.60
2018-12-11T20:33:10.560Z,16.40
2018-12-11T20:35:38.948Z,18.35
2018-12-11T20:38:08.033Z,15.68
2018-12-11T20:40:36.668Z,18.10
2018-12-11T20:43:07.350Z,15.58
2018-12-11T20:45:36.588Z,13.98
2018-12-11T20:48:05.684Z,19.37
2018-12-11T20:50:35.255Z,16.90
2018-12-11T20:53:04.763Z,20.37
2018-12-11T20:55:36.093Z,12.23
2018-12-11T20:58:04.806Z,11.95
2018-12-11T21:00:34.287Z,21.17
2018-12-11T21:03:02.805Z,17.50
2018-12-11T21:05:31.223Z,17.45
2018-12-11T21:07:59.917Z,13.13
2018-12-11T21:10:28.544Z,18.55
2018-12-11T21:12:57.780Z,17.17
2018-12-11T21:15:27.795Z,11.75
2018-12-11T21:17:55.697Z,16.55
2018-12-11T21:20:23.921Z,14.65
2018-12-11T21:22:51.710Z,18.02
2018-12-11T21:25:20.269Z,19.27
2018-12-11T21:27:48.050Z,16.15
2018-12-11T21:30:16.441Z,18.50
2018-12-11T21:32:45.149Z,17.12
2018-12-11T21:35:14.850Z,17.32
2018-12-11T21:37:42.700Z,14.00
2018-12-11T21:40:11.279Z,12.75
2018-12-11T21:42:40.749Z,16.05
2018-12-11T21:45:08.796Z,13.28
2018-12-11T21:47:37.003Z,16.07
2018-12-11T21:50:06.469Z,17.80
2018-12-11T21:52:34.821Z,15.38
2018-12-11T21:55:02.415Z,12.07
2018-12-11T21:57:30.914Z,14.33
2018-12-11T21:59:59.369Z,15.58
2018-12-11T22:02:31.428Z,14.35
2018-12-11T22:04:59.302Z,11.18
2018-12-11T22:07:28.141Z,18.23
2018-12-11T22:09:55.626Z,14.95
2018-12-11T22:12:23.602Z,16.70
2018-12-11T22:14:51.126Z,10.63
2018-12-11T22:17:18.585Z,13.00
2018-12-11T22:19:46.500Z,12.33
2018-12-11T22:22:13.948Z,13.05
2018-12-11T22:24:41.489Z,11.60
2018-12-11T22:27:08.961Z,11.88
2018-12-11T22:29:36.479Z,13.38
2018-12-11T22:32:04.144Z,17.92
2018-12-11T22:34:31.640Z,18.90
2018-12-11T22:36:59.457Z,16.75
2018-12-11T22:39:26.828Z,12.47
2018-12-11T22:41:54.246Z,12.88
2018-12-11T22:44:23.474Z,11.10
2018-12-11T22:49:32.898Z,14.53
2018-12-11T22:52:01.807Z,18.98
2018-12-11T22:54:30.688Z,18.90
2018-12-11T22:56:58.855Z,22.77
2018-12-11T22:59:26.198Z,15.72
2018-12-11T23:01:53.485Z,17.82
2018-12-11T23:04:20.855Z,17.52
2018-12-11T23:06:49.874Z,13.43
2018-12-11T23:09:19.327Z,20.80
2018-12-11T23:11:47.503Z,19.48
2018-12-11T23:14:16.935Z,17.02
2018-12-11T23:16:44.597Z,15.55
2018-12-11T23:19:11.951Z,16.27
2018-12-11T23:21:39.315Z,15.05
2018-12-11T23:24:06.593Z,17.42
2018-12-11T23:26:33.965Z,21.07
2018-12-11T23:29:01.301Z,31.10
2018-12-11T23:31:29.177Z,14.38
2018-12-11T23:33:56.513Z,18.00
2018-12-11T23:36:24.146Z,14.87
2018-12-11T23:38:51.832Z,17.20
2018-12-11T23:41:19.139Z,19.85
2018-12-11T23:43:46.511Z,15.83
2018-12-11T23:46:13.907Z,14.03
2018-12-11T23:48:41.527Z,17.70
2018-12-11T23:51:08.841Z,13.50
2018-12-11T23:53:36.435Z,11.90
2018-12-11T23:56:04.079Z,20.40
2018-12-11T23:58:31.343Z,20.15
